createdAt,value
2023-01-10T00:00:07.313Z,2.90
2023-01-10T00:03:08.274Z,3.30
2023-01-10T00:06:09.290Z,2.60
2023-01-10T00:09:10.371Z,3.60
2023-01-10T00:12:29.261Z,3.00
2023-01-10T00:15:30.245Z,3.30
2023-01-10T00:18:32.245Z,2.40
2023-01-10T00:21:34.270Z,2.80
2023-01-10T00:24:34.274Z,2.80
2023-01-10T00:27:34.965Z,3.10
2023-01-10T00:30:36.912Z,2.90
2023-01-10T00:33:38.274Z,2.70
2023-01-10T00:36:38.245Z,3.30
2023-01-10T00:39:38.268Z,3.20
2023-01-10T00:42:56.322Z,4.20
2023-01-10T00:45:58.367Z,3.10
2023-01-10T00:48:59.367Z,4.20
2023-01-10T00:52:04.280Z,3.00
2023-01-10T00:55:05.349Z,2.90
2023-01-10T00:58:08.412Z,3.30
2023-01-10T01:01:09.621Z,2.90
2023-01-10T01:04:09.361Z,3.70
2023-01-10T01:07:10.322Z,4.20
2023-01-10T01:10:28.358Z,3.10
2023-01-10T01:13:33.469Z,3.30
2023-01-10T01:16:34.316Z,2.90
2023-01-10T01:19:35.333Z,3.40
2023-01-10T01:22:36.358Z,3.40
2023-01-10T01:25:36.327Z,3.40
2023-01-10T01:28:38.473Z,3.60
2023-01-10T01:31:40.667Z,3.40
2023-01-10T01:34:43.477Z,3.50
2023-01-10T01:37:45.105Z,3.10
2023-01-10T01:40:47.447Z,2.70
2023-01-10T01:44:22.635Z,3.60
2023-01-10T01:47:34.522Z,3.00
2023-01-10T01:50:41.405Z,3.40
2023-01-10T01:53:56.395Z,3.10
2023-01-10T01:57:02.439Z,3.20
2023-01-10T02:00:07.388Z,3.00
2023-01-10T02:03:09.589Z,4.10
2023-01-10T02:06:09.417Z,4.20
2023-01-10T02:09:18.514Z,4.90
2023-01-10T02:12:19.447Z,3.70
2023-01-10T02:15:20.448Z,3.10
2023-01-10T02:18:21.809Z,3.20
2023-01-10T02:21:46.431Z,2.90
2023-01-10T02:24:59.547Z,3.80
2023-01-10T02:28:01.975Z,3.80
2023-01-10T02:31:09.718Z,3.30
2023-01-10T02:34:15.502Z,3.80
2023-01-10T02:37:20.053Z,3.60
2023-01-10T02:40:22.487Z,3.00
2023-01-10T02:43:41.444Z,2.80
2023-01-10T02:46:44.561Z,3.60
2023-01-10T02:49:55.599Z,3.50
2023-01-10T02:52:56.472Z,4.10
2023-01-10T02:56:08.491Z,3.50
2023-01-10T02:59:31.556Z,3.60
2023-01-10T03:02:50.586Z,3.10
2023-01-10T03:06:07.558Z,3.40
2023-01-10T03:09:45.507Z,3.50
2023-01-10T03:12:58.582Z,3.30
2023-01-10T03:15:58.577Z,3.50
2023-01-10T03:19:07.533Z,3.10
2023-01-10T03:22:09.586Z,3.80
2023-01-10T03:25:09.556Z,3.40
2023-01-10T03:28:22.622Z,4.10
2023-01-10T03:31:27.140Z,3.60
2023-01-10T03:34:28.527Z,5.10
2023-01-10T03:37:35.617Z,3.70
2023-01-10T03:40:46.540Z,4.00
2023-01-10T03:44:19.621Z,4.20
2023-01-10T03:47:48.578Z,3.50
2023-01-10T03:50:49.598Z,4.00
2023-01-10T03:53:51.039Z,4.00
2023-01-10T03:57:02.949Z,4.10
2023-01-10T04:00:08.730Z,4.90
2023-01-10T04:03:09.685Z,3.20
2023-01-10T04:06:10.703Z,4.10
2023-01-10T04:09:10.637Z,4.10
2023-01-10T04:12:11.641Z,3.80
2023-01-10T04:15:13.767Z,4.30
2023-01-10T04:18:13.917Z,5.30
2023-01-10T04:21:13.653Z,4.20
2023-01-10T04:24:14.624Z,4.40
2023-01-10T04:27:16.687Z,4.40
2023-01-10T04:30:16.686Z,4.40
2023-01-10T04:33:17.713Z,4.20
2023-01-10T04:36:18.989Z,3.30
2023-01-10T04:39:18.643Z,4.30
2023-01-10T04:42:19.178Z,3.20
2023-01-10T04:45:23.726Z,3.90
2023-01-10T04:48:23.715Z,4.00
2023-01-10T04:51:23.753Z,4.20
2023-01-10T04:54:23.687Z,3.90
2023-01-10T04:57:26.935Z,4.80
2023-01-10T05:00:26.780Z,5.10
2023-01-10T05:03:27.706Z,5.30
2023-01-10T05:06:29.820Z,5.20
2023-01-10T05:09:22.894Z,4.70
2023-01-10T05:12:23.798Z,4.60
2023-01-10T05:15:27.231Z,5.40
2023-01-10T05:18:27.862Z,4.90
2023-01-10T05:21:27.788Z,4.50
2023-01-10T05:24:28.851Z,7.20
2023-01-10T05:27:29.786Z,5.60
2023-01-10T05:30:29.766Z,6.10
2023-01-10T05:33:30.735Z,5.80
2023-01-10T05:36:31.722Z,5.40
2023-01-10T05:39:33.799Z,7.00
2023-01-10T05:42:36.783Z,8.10
2023-01-10T05:45:36.845Z,6.00
2023-01-10T05:48:37.817Z,6.50
2023-01-10T05:51:37.819Z,5.60
2023-01-10T05:54:41.880Z,6.20
2023-01-10T05:57:41.885Z,6.60
2023-01-10T06:00:45.871Z,7.00
2023-01-10T06:03:47.815Z,6.60
2023-01-10T06:06:48.803Z,7.20
2023-01-10T06:09:55.136Z,6.20
2023-01-10T06:12:57.038Z,7.00
2023-01-10T06:19:01.605Z,6.40
2023-01-10T06:22:02.847Z,7.10
2023-01-10T06:25:02.810Z,6.40
2023-01-10T06:28:02.909Z,5.90
2023-01-10T06:31:03.573Z,6.70
2023-01-10T06:34:07.850Z,7.80
2023-01-10T06:37:13.131Z,8.10
2023-01-10T06:40:14.935Z,7.50
2023-01-10T06:43:14.924Z,7.70
2023-01-10T06:46:15.924Z,8.10
2023-01-10T06:49:16.901Z,8.30
2023-01-10T06:52:17.925Z,6.20
2023-01-10T06:55:18.894Z,7.70
2023-01-10T06:58:23.949Z,8.80
2023-01-10T07:01:29.032Z,7.40
2023-01-10T07:04:28.874Z,8.50
2023-01-10T07:07:31.975Z,9.20
2023-01-10T07:10:34.961Z,7.30
2023-01-10T07:13:37.965Z,7.70
2023-01-10T07:16:39.894Z,7.90
2023-01-10T07:19:40.933Z,7.00
2023-01-10T07:22:45.063Z,7.50
2023-01-10T07:25:47.161Z,8.40
2023-01-10T07:28:49.818Z,7.20
2023-01-10T07:31:50.972Z,6.80
2023-01-10T07:34:55.003Z,6.90
2023-01-10T07:37:55.986Z,6.20
2023-01-10T07:40:55.947Z,6.90
2023-01-10T07:43:56.129Z,8.60
2023-01-10T07:46:56.131Z,8.70
2023-01-10T07:49:56.970Z,8.10
2023-01-10T07:52:57.006Z,8.70
2023-01-10T07:55:58.243Z,7.60
2023-01-10T07:59:04.047Z,7.10
2023-01-10T08:02:05.063Z,7.70
2023-01-10T08:05:09.749Z,9.00
2023-01-10T08:08:24.083Z,9.00
2023-01-10T08:11:18.047Z,7.80
2023-01-10T08:14:18.223Z,6.60
2023-01-10T08:17:18.045Z,7.90
2023-01-10T08:20:19.040Z,8.10
2023-01-10T08:23:19.069Z,8.10
2023-01-10T08:26:20.081Z,8.00
2023-01-10T08:29:22.097Z,7.00
2023-01-10T08:32:22.101Z,7.70
2023-01-10T08:35:25.083Z,7.60
2023-01-10T08:38:26.089Z,8.20
2023-01-10T08:41:26.081Z,7.80
2023-01-10T08:44:26.346Z,7.90
2023-01-10T08:47:26.112Z,7.50
2023-01-10T08:50:28.187Z,7.30
2023-01-10T08:53:28.134Z,7.80
2023-01-10T08:56:28.164Z,7.40
2023-01-10T08:59:28.100Z,7.90
2023-01-10T09:02:30.300Z,6.20
2023-01-10T09:05:30.104Z,5.90
2023-01-10T09:08:30.109Z,5.50
2023-01-10T09:11:30.121Z,5.60
2023-01-10T09:14:30.140Z,7.10
2023-01-10T09:17:32.658Z,7.10
2023-01-10T09:20:33.110Z,7.10
2023-01-10T09:23:37.058Z,7.00
2023-01-10T09:26:40.623Z,5.50
2023-01-10T09:29:41.205Z,5.70
2023-01-10T09:32:42.247Z,7.00
2023-01-10T09:35:42.196Z,7.40
2023-01-10T09:38:43.171Z,7.10
2023-01-10T09:42:07.312Z,7.70
2023-01-10T09:45:45.207Z,7.40
2023-01-10T09:48:55.215Z,8.10
2023-01-10T09:51:58.304Z,8.30
2023-01-10T09:54:59.186Z,10.50
2023-01-10T09:57:59.201Z,8.40
2023-01-10T10:01:11.312Z,7.90
2023-01-10T10:07:16.253Z,8.00
2023-01-10T10:10:18.236Z,5.90
2023-01-10T10:13:28.190Z,5.20
2023-01-10T10:16:38.304Z,6.90
2023-01-10T10:19:49.276Z,5.90
2023-01-10T10:22:56.218Z,7.20
2023-01-10T10:26:18.328Z,6.10
2023-01-10T10:29:54.308Z,5.50
2023-01-10T10:33:17.404Z,5.90
2023-01-10T10:36:31.522Z,5.70
2023-01-10T10:39:33.236Z,5.90
2023-01-10T10:42:34.279Z,5.40
2023-01-10T10:45:55.391Z,5.60
2023-01-10T10:49:01.280Z,5.70
2023-01-10T10:52:06.304Z,6.90
2023-01-10T10:55:06.297Z,5.70
2023-01-10T16:17:31.857Z,6.60
2023-01-10T16:20:35.464Z,7.50
2023-01-10T16:23:37.999Z,6.10
2023-01-10T16:26:41.265Z,5.90
2023-01-10T16:29:42.009Z,5.70
2023-01-10T16:32:44.109Z,6.20
2023-01-10T16:35:44.873Z,5.40
2023-01-10T16:38:46.919Z,4.30
2023-01-10T16:42:06.951Z,4.20
2023-01-10T16:45:07.938Z,4.60
2023-01-10T16:48:09.110Z,3.10
2023-01-10T16:51:35.952Z,3.70
2023-01-10T16:54:37.961Z,4.40
2023-01-10T16:57:38.880Z,4.30
2023-01-10T17:00:40.031Z,4.50
2023-01-10T17:03:40.866Z,3.70
2023-01-10T17:06:41.916Z,6.60
2023-01-10T17:09:43.908Z,4.90
2023-01-10T17:12:46.973Z,4.10
2023-01-10T17:15:47.999Z,4.00
2023-01-10T17:18:48.947Z,4.40
2023-01-10T17:21:49.968Z,4.20
2023-01-10T17:24:50.934Z,4.30
2023-01-10T17:27:52.912Z,3.50
2023-01-10T17:30:53.959Z,4.60
2023-01-10T17:33:55.973Z,4.20
2023-01-10T17:36:56.974Z,3.60
2023-01-10T17:39:59.131Z,4.00
2023-01-10T17:43:01.400Z,4.30
2023-01-10T17:46:06.301Z,3.90
2023-01-10T17:49:06.969Z,4.20
2023-01-10T17:52:08.312Z,3.70
2023-01-10T17:55:09.965Z,4.80
2023-01-10T17:58:12.001Z,4.00
2023-01-10T18:01:14.128Z,4.10
2023-01-10T18:04:15.024Z,3.60
2023-01-10T18:07:16.049Z,4.90
2023-01-10T18:10:18.023Z,3.80
2023-01-10T18:13:19.019Z,3.60
2023-01-10T18:16:20.094Z,3.60
2023-01-10T18:19:21.023Z,4.40
2023-01-10T18:22:40.081Z,3.20
2023-01-10T18:25:41.030Z,3.60
2023-01-10T18:28:47.032Z,3.70
2023-01-10T18:31:49.025Z,5.40
2023-01-10T18:34:50.111Z,5.30
2023-01-10T18:37:51.110Z,3.80
2023-01-10T18:40:59.354Z,3.60
2023-01-10T18:44:01.110Z,4.20
2023-01-10T18:47:03.039Z,5.10
2023-01-10T18:50:04.170Z,4.30
2023-01-10T18:53:07.057Z,4.00
2023-01-10T18:56:02.082Z,5.60
2023-01-10T18:58:51.113Z,4.90
2023-01-10T19:01:53.405Z,5.00
2023-01-10T19:04:54.401Z,6.50
2023-01-10T19:07:57.084Z,5.10
2023-01-10T19:11:12.451Z,4.30
2023-01-10T19:14:15.138Z,4.50
2023-01-10T19:17:16.146Z,5.00
2023-01-10T19:20:18.137Z,5.10
2023-01-10T19:23:20.102Z,4.60
2023-01-10T19:26:21.129Z,4.50
2023-01-10T19:29:24.185Z,4.60
2023-01-10T19:32:28.157Z,4.20
2023-01-10T19:35:29.153Z,4.80
2023-01-10T19:38:30.137Z,4.40
2023-01-10T19:41:33.529Z,3.70
2023-01-10T19:44:35.214Z,4.20
2023-01-10T19:47:36.157Z,4.10
2023-01-10T19:50:37.172Z,4.80
2023-01-10T19:53:39.350Z,4.40
2023-01-10T19:56:40.681Z,5.20
2023-01-10T19:59:41.224Z,3.50
2023-01-10T20:02:44.310Z,4.30
2023-01-10T20:05:48.221Z,4.60
2023-01-10T20:08:49.245Z,4.10
2023-01-10T20:11:53.216Z,5.20
2023-01-10T20:14:54.438Z,5.10
2023-01-10T20:17:55.188Z,3.50
2023-01-10T20:20:56.513Z,4.50
2023-01-10T20:24:00.331Z,3.30
2023-01-10T20:27:01.233Z,5.40
2023-01-10T20:30:02.358Z,3.80
2023-01-10T20:33:04.235Z,3.80
2023-01-10T20:36:11.469Z,4.00
2023-01-10T20:39:16.647Z,4.20
2023-01-10T20:42:17.399Z,3.70
2023-01-10T20:45:18.247Z,4.60
2023-01-10T20:48:20.283Z,4.20
2023-01-10T20:51:23.288Z,5.00
2023-01-10T20:54:26.855Z,3.60
2023-01-10T20:57:27.282Z,3.90
2023-01-10T21:00:33.357Z,5.10
2023-01-10T21:03:34.257Z,4.30
2023-01-10T21:06:36.691Z,4.10
2023-01-10T21:09:37.341Z,3.00
2023-01-10T21:12:39.317Z,4.80
2023-01-10T21:15:42.277Z,4.40
2023-01-10T21:18:51.404Z,3.90
2023-01-10T21:21:53.354Z,4.00
2023-01-10T21:24:55.383Z,5.20
2023-01-10T21:27:58.309Z,4.20
2023-01-10T21:30:59.311Z,3.20
2023-01-10T21:34:00.384Z,4.60
2023-01-10T21:37:01.371Z,4.00
2023-01-10T21:40:02.415Z,4.50
2023-01-10T21:43:03.362Z,4.80
2023-01-10T21:46:04.379Z,4.10
2023-01-10T21:49:05.492Z,4.60
2023-01-10T21:52:07.487Z,4.90
2023-01-10T21:55:10.917Z,4.20
2023-01-10T21:58:11.449Z,4.80
